sensor_id;sensor_type;location;lat;lon;timestamp;pressure;altitude;pressure_sealevel;temperature;humidity
7836;BME280;3963;42.658;23.298;2023-01-30T00:01:22;58061.06;;;-0.85;100.00
7836;BME280;3963;42.658;23.298;2023-01-30T00:03:49;58079.38;;;-0.85;100.00
7836;BME280;3963;42.658;23.298;2023-01-30T00:06:18;58054.69;;;-0.94;100.00
7836;BME280;3963;42.658;23.298;2023-01-30T00:08:45;58057.41;;;-0.89;100.00
7836;BME280;3963;42.658;23.298;2023-01-30T00:11:13;58058.28;;;-0.93;100.00
7836;BME280;3963;42.658;23.298;2023-01-30T00:13:41;58074.94;;;-0.82;100.00
7836;BME280;3963;42.658;23.298;2023-01-30T00:16:09;58064.06;;;-0.87;100.00
7836;BME280;3963;42.658;23.298;2023-01-30T00:18:36;58057.06;;;-0.84;100.00
7836;BME280;3963;42.658;23.298;2023-01-30T00:21:05;58055.56;;;-0.83;100.00
7836;BME280;3963;42.658;23.298;2023-01-30T00:23:35;58074.91;;;-0.96;100.00
7836;BME280;3963;42.658;23.298;2023-01-30T00:26:03;58063.78;;;-0.80;100.00
7836;BME280;3963;42.658;23.298;2023-01-30T00:28:30;58050.91;;;-0.85;100.00
7836;BME280;3963;42.658;23.298;2023-01-30T00:30:57;58032.53;;;-0.88;100.00
7836;BME280;3963;42.658;23.298;2023-01-30T00:33:25;58064.06;;;-0.87;100.00
7836;BME280;3963;42.658;23.298;2023-01-30T00:35:54;58064.31;;;-0.80;100.00
7836;BME280;3963;42.658;23.298;2023-01-30T00:38:22;58083.16;;;-0.79;100.00
7836;BME280;3963;42.658;23.298;2023-01-30T00:40:50;58086.22;;;-0.78;100.00
7836;BME280;3963;42.658;23.298;2023-01-30T00:43:19;58093.16;;;-0.69;100.00
7836;BME280;3963;42.658;23.298;2023-01-30T00:46:07;58075.09;;;-0.62;100.00
7836;BME280;3963;42.658;23.298;2023-01-30T00:48:53;58092.13;;;-0.56;100.00
7836;BME280;3963;42.658;23.298;2023-01-30T00:51:20;58097.63;;;-0.58;100.00
7836;BME280;3963;42.658;23.298;2023-01-30T00:53:47;58092.47;;;-0.75;100.00
7836;BME280;3963;42.658;23.298;2023-01-30T00:56:15;58071.94;;;-0.65;100.00
7836;BME280;3963;42.658;23.298;2023-01-30T00:58:42;58092.91;;;-0.62;100.00
7836;BME280;3963;42.658;23.298;2023-01-30T01:01:08;58060.03;;;-0.72;100.00
7836;BME280;3963;42.658;23.298;2023-01-30T01:03:36;58062.13;;;-0.84;100.00
7836;BME280;3963;42.658;23.298;2023-01-30T01:06:03;58071.25;;;-0.85;100.00
7836;BME280;3963;42.658;23.298;2023-01-30T01:08:29;58068.59;;;-0.88;100.00
7836;BME280;3963;42.658;23.298;2023-01-30T01:10:57;58057.75;;;-0.93;100.00
7836;BME280;3963;42.658;23.298;2023-01-30T01:13:25;57989.72;;;-0.93;100.00
7836;BME280;3963;42.658;23.298;2023-01-30T01:15:52;58029.28;;;-0.94;100.00
7836;BME280;3963;42.658;23.298;2023-01-30T01:18:18;58044.16;;;-1.04;100.00
7836;BME280;3963;42.658;23.298;2023-01-30T01:20:45;58061.16;;;-0.97;100.00
7836;BME280;3963;42.658;23.298;2023-01-30T01:23:12;58030.75;;;-1.09;100.00
7836;BME280;3963;42.658;23.298;2023-01-30T01:25:39;58017.81;;;-1.17;100.00
7836;BME280;3963;42.658;23.298;2023-01-30T01:28:06;58016.94;;;-0.98;100.00
7836;BME280;3963;42.658;23.298;2023-01-30T01:30:34;58003.81;;;-1.11;100.00
7836;BME280;3963;42.658;23.298;2023-01-30T01:33:01;58035.50;;;-1.05;100.00
7836;BME280;3963;42.658;23.298;2023-01-30T01:35:28;58040.56;;;-1.05;100.00
7836;BME280;3963;42.658;23.298;2023-01-30T01:37:55;58028.66;;;-0.97;100.00
7836;BME280;3963;42.658;23.298;2023-01-30T01:40:22;58046.44;;;-0.97;100.00
7836;BME280;3963;42.658;23.298;2023-01-30T01:43:17;58033.38;;;-1.07;100.00
7836;BME280;3963;42.658;23.298;2023-01-30T01:45:48;58031.19;;;-1.12;100.00
7836;BME280;3963;42.658;23.298;2023-01-30T01:48:19;58054.13;;;-1.09;100.00
7836;BME280;3963;42.658;23.298;2023-01-30T01:50:52;58029.88;;;-1.20;100.00
7836;BME280;3963;42.658;23.298;2023-01-30T01:53:22;58009.75;;;-1.15;100.00
7836;BME280;3963;42.658;23.298;2023-01-30T01:55:55;58007.56;;;-1.20;100.00
7836;BME280;3963;42.658;23.298;2023-01-30T01:58:25;58024.34;;;-1.18;100.00
7836;BME280;3963;42.658;23.298;2023-01-30T02:00:57;58022.69;;;-1.07;100.00
7836;BME280;3963;42.658;23.298;2023-01-30T02:03:26;58041.25;;;-1.14;100.00
7836;BME280;3963;42.658;23.298;2023-01-30T02:05:56;58022.97;;;-1.15;100.00
7836;BME280;3963;42.658;23.298;2023-01-30T02:08:26;58008.78;;;-1.14;100.00
7836;BME280;3963;42.658;23.298;2023-01-30T02:10:59;58020.00;;;-1.13;100.00
7836;BME280;3963;42.658;23.298;2023-01-30T02:13:29;58029.88;;;-1.20;100.00
7836;BME280;3963;42.658;23.298;2023-01-30T02:15:58;58046.88;;;-1.14;100.00
7836;BME280;3963;42.658;23.298;2023-01-30T02:18:27;57993.38;;;-1.19;100.00
7836;BME280;3963;42.658;23.298;2023-01-30T02:21:16;58029.19;;;-1.26;100.00
7836;BME280;3963;42.658;23.298;2023-01-30T02:24:12;57973.59;;;-1.33;100.00
7836;BME280;3963;42.658;23.298;2023-01-30T02:27:13;58020.59;;;-1.24;100.00
7836;BME280;3963;42.658;23.298;2023-01-30T02:30:10;57983.13;;;-1.36;100.00
7836;BME280;3963;42.658;23.298;2023-01-30T02:32:45;57999.75;;;-1.25;100.00
7836;BME280;3963;42.658;23.298;2023-01-30T02:35:23;58033.72;;;-1.26;100.00
7836;BME280;3963;42.658;23.298;2023-01-30T02:38:02;58039.97;;;-1.08;100.00
7836;BME280;3963;42.658;23.298;2023-01-30T02:40:39;58008.59;;;-1.04;100.00
7836;BME280;3963;42.658;23.298;2023-01-30T02:43:14;58038.91;;;-0.94;100.00
7836;BME280;3963;42.658;23.298;2023-01-30T02:45:49;58055.28;;;-0.91;100.00
7836;BME280;3963;42.658;23.298;2023-01-30T02:48:23;58043.28;;;-1.00;100.00
7836;BME280;3963;42.658;23.298;2023-01-30T02:50:54;58071.59;;;-0.90;100.00
7836;BME280;3963;42.658;23.298;2023-01-30T02:53:23;58063.19;;;-0.83;100.00
7836;BME280;3963;42.658;23.298;2023-01-30T02:55:50;58054.50;;;-0.99;100.00
7836;BME280;3963;42.658;23.298;2023-01-30T02:58:18;58066.06;;;-0.88;100.00
7836;BME280;3963;42.658;23.298;2023-01-30T03:00:59;58063.72;;;-0.83;100.00
7836;BME280;3963;42.658;23.298;2023-01-30T03:03:43;58054.31;;;-1.04;100.00
7836;BME280;3963;42.658;23.298;2023-01-30T03:06:24;58068.31;;;-0.95;100.00
7836;BME280;3963;42.658;23.298;2023-01-30T03:09:05;58027.19;;;-0.96;100.00
7836;BME280;3963;42.658;23.298;2023-01-30T03:11:39;58025.53;;;-0.85;100.00
7836;BME280;3963;42.658;23.298;2023-01-30T03:14:16;58038.13;;;-1.02;100.00
7836;BME280;3963;42.658;23.298;2023-01-30T03:16:45;58010.09;;;-1.05;100.00
7836;BME280;3963;42.658;23.298;2023-01-30T03:19:18;58023.13;;;-1.24;100.00
7836;BME280;3963;42.658;23.298;2023-01-30T03:21:45;58006.50;;;-1.35;100.00
7836;BME280;3963;42.658;23.298;2023-01-30T03:24:13;58000.66;;;-1.14;100.00
7836;BME280;3963;42.658;23.298;2023-01-30T03:26:44;58011.16;;;-1.04;100.00
7836;BME280;3963;42.658;23.298;2023-01-30T03:29:12;58028.22;;;-1.09;100.00
7836;BME280;3963;42.658;23.298;2023-01-30T03:31:39;58039.34;;;-1.11;100.00
7836;BME280;3963;42.658;23.298;2023-01-30T03:34:05;58061.25;;;-0.95;100.00
7836;BME280;3963;42.658;23.298;2023-01-30T03:36:34;58003.09;;;-1.02;100.00
7836;BME280;3963;42.658;23.298;2023-01-30T03:39:00;58032.34;;;-1.08;100.00
7836;BME280;3963;42.658;23.298;2023-01-30T03:41:27;58020.75;;;-1.19;100.00
7836;BME280;3963;42.658;23.298;2023-01-30T03:43:54;58028.19;;;-1.24;100.00
7836;BME280;3963;42.658;23.298;2023-01-30T03:46:21;57972.63;;;-1.31;100.00
7836;BME280;3963;42.658;23.298;2023-01-30T03:48:48;57997.50;;;-1.32;100.00
7836;BME280;3963;42.658;23.298;2023-01-30T03:51:14;58021.81;;;-1.18;100.00
7836;BME280;3963;42.658;23.298;2023-01-30T03:53:43;58020.94;;;-1.29;100.00
7836;BME280;3963;42.658;23.298;2023-01-30T03:56:09;57999.06;;;-1.30;100.00
7836;BME280;3963;42.658;23.298;2023-01-30T03:58:36;57981.97;;;-1.39;100.00
7836;BME280;3963;42.658;23.298;2023-01-30T04:01:03;58009.56;;;-1.35;100.00
7836;BME280;3963;42.658;23.298;2023-01-30T04:03:31;58001.69;;;-1.28;100.00
7836;BME280;3963;42.658;23.298;2023-01-30T04:05:58;57968.59;;;-1.30;100.00
7836;BME280;3963;42.658;23.298;2023-01-30T04:08:25;57997.31;;;-1.22;100.00
7836;BME280;3963;42.658;23.298;2023-01-30T04:10:53;57979.00;;;-1.37;100.00
7836;BME280;3963;42.658;23.298;2023-01-30T04:13:20;58024.78;;;-1.35;100.00
7836;BME280;3963;42.658;23.298;2023-01-30T04:15:47;58013.84;;;-1.28;100.00
7836;BME280;3963;42.658;23.298;2023-01-30T04:18:14;58012.19;;;-1.18;100.00
7836;BME280;3963;42.658;23.298;2023-01-30T04:20:40;58020.69;;;-1.07;100.00
7836;BME280;3963;42.658;23.298;2023-01-30T04:23:07;58035.91;;;-1.07;100.00
7836;BME280;3963;42.658;23.298;2023-01-30T04:25:34;58081.88;;;-1.14;100.00
7836;BME280;3963;42.658;23.298;2023-01-30T04:28:02;58038.19;;;-1.15;100.00
7836;BME280;3963;42.658;23.298;2023-01-30T04:30:29;57999.06;;;-1.30;100.00
7836;BME280;3963;42.658;23.298;2023-01-30T04:32:56;58001.16;;;-1.28;100.00
7836;BME280;3963;42.658;23.298;2023-01-30T04:35:22;57950.22;;;-1.33;100.00
7836;BME280;3963;42.658;23.298;2023-01-30T04:37:49;58000.81;;;-1.38;100.00
7836;BME280;3963;42.658;23.298;2023-01-30T04:40:16;57977.69;;;-1.46;100.00
7836;BME280;3963;42.658;23.298;2023-01-30T04:42:43;57978.22;;;-1.45;100.00
7836;BME280;3963;42.658;23.298;2023-01-30T04:45:11;57968.59;;;-1.45;100.00
7836;BME280;3963;42.658;23.298;2023-01-30T04:47:38;57959.50;;;-1.44;100.00
7836;BME280;3963;42.658;23.298;2023-01-30T04:50:06;57977.06;;;-1.34;100.00
7836;BME280;3963;42.658;23.298;2023-01-30T04:52:33;57973.13;;;-1.45;100.00
7836;BME280;3963;42.658;23.298;2023-01-30T04:55:00;58002.03;;;-1.32;100.00
7836;BME280;3963;42.658;23.298;2023-01-30T04:57:27;57989.69;;;-1.37;100.00
7836;BME280;3963;42.658;23.298;2023-01-30T04:59:54;57994.06;;;-1.42;100.00
7836;BME280;3963;42.658;23.298;2023-01-30T05:02:22;57967.53;;;-1.46;100.00
7836;BME280;3963;42.658;23.298;2023-01-30T05:04:49;57972.28;;;-1.41;100.00
7836;BME280;3963;42.658;23.298;2023-01-30T05:07:15;58006.81;;;-1.40;100.00
7836;BME280;3963;42.658;23.298;2023-01-30T05:09:42;58009.56;;;-1.35;100.00
7836;BME280;3963;42.658;23.298;2023-01-30T05:12:09;57963.34;;;-1.35;100.00
7836;BME280;3963;42.658;23.298;2023-01-30T05:14:35;57998.50;;;-1.45;100.00
7836;BME280;3963;42.658;23.298;2023-01-30T05:17:05;57965.34;;;-1.50;100.00
7836;BME280;3963;42.658;23.298;2023-01-30T05:19:34;58006.03;;;-1.48;100.00
7836;BME280;3963;42.658;23.298;2023-01-30T05:22:01;57995.19;;;-1.39;100.00
7836;BME280;3963;42.658;23.298;2023-01-30T05:24:28;57996.50;;;-1.45;100.00
7836;BME280;3963;42.658;23.298;2023-01-30T05:26:54;57974.72;;;-1.58;100.00
7836;BME280;3963;42.658;23.298;2023-01-30T05:29:21;57965.44;;;-1.62;100.00
7836;BME280;3963;42.658;23.298;2023-01-30T05:31:48;57938.06;;;-1.62;100.00
7836;BME280;3963;42.658;23.298;2023-01-30T05:34:15;57976.28;;;-1.57;100.00
7836;BME280;3963;42.658;23.298;2023-01-30T05:36:43;57955.66;;;-1.52;100.00
7836;BME280;3963;42.658;23.298;2023-01-30T05:39:10;57953.72;;;-1.49;100.00
7836;BME280;3963;42.658;23.298;2023-01-30T05:41:37;57976.19;;;-1.45;100.00
7836;BME280;3963;42.658;23.298;2023-01-30T05:44:04;57981.97;;;-1.39;100.00
7836;BME280;3963;42.658;23.298;2023-01-30T05:46:31;57965.09;;;-1.43;100.00
7836;BME280;3963;42.658;23.298;2023-01-30T05:48:58;57994.31;;;-1.49;100.00
7836;BME280;3963;42.658;23.298;2023-01-30T05:51:25;58001.50;;;-1.33;100.00
7836;BME280;3963;42.658;23.298;2023-01-30T05:53:54;58006.56;;;-1.33;100.00
7836;BME280;3963;42.658;23.298;2023-01-30T05:56:21;58002.03;;;-1.32;100.00
7836;BME280;3963;42.658;23.298;2023-01-30T05:58:53;57957.53;;;-1.70;100.00
7836;BME280;3963;42.658;23.298;2023-01-30T06:01:21;57996.50;;;-1.45;100.00
7836;BME280;3963;42.658;23.298;2023-01-30T06:03:48;57964.56;;;-1.44;100.00
7836;BME280;3963;42.658;23.298;2023-01-30T06:06:16;58016.44;;;-1.40;100.00
7836;BME280;3963;42.658;23.298;2023-01-30T06:08:42;58032.28;;;-1.37;100.00
7836;BME280;3963;42.658;23.298;2023-01-30T06:11:13;58028.28;;;-1.22;100.00
7836;BME280;3963;42.658;23.298;2023-01-30T06:13:41;57996.78;;;-1.23;100.00
7836;BME280;3963;42.658;23.298;2023-01-30T06:16:10;58037.22;;;-1.13;100.00
7836;BME280;3963;42.658;23.298;2023-01-30T06:18:37;57983.13;;;-1.21;100.00
7836;BME280;3963;42.658;23.298;2023-01-30T06:21:04;58027.41;;;-1.32;100.00
7836;BME280;3963;42.658;23.298;2023-01-30T06:23:31;57950.84;;;-1.45;100.00
7836;BME280;3963;42.658;23.298;2023-01-30T06:25:58;57993.81;;;-1.35;100.00
7836;BME280;3963;42.658;23.298;2023-01-30T06:28:26;58021.63;;;-1.38;100.00
7836;BME280;3963;42.658;23.298;2023-01-30T06:30:53;58025.41;;;-1.32;100.00
7836;BME280;3963;42.658;23.298;2023-01-30T06:33:20;58002.81;;;-1.24;100.00
7836;BME280;3963;42.658;23.298;2023-01-30T06:35:48;57967.38;;;-1.36;100.00
7836;BME280;3963;42.658;23.298;2023-01-30T06:38:15;57974.03;;;-1.49;100.00
7836;BME280;3963;42.658;23.298;2023-01-30T06:40:43;57938.94;;;-1.51;100.00
7836;BME280;3963;42.658;23.298;2023-01-30T06:43:11;57980.50;;;-1.53;100.00
7836;BME280;3963;42.658;23.298;2023-01-30T06:45:39;57966.31;;;-1.37;100.00
7836;BME280;3963;42.658;23.298;2023-01-30T06:48:06;57972.81;;;-1.41;100.00
7836;BME280;3963;42.658;23.298;2023-01-30T06:50:33;57983.47;;;-1.40;100.00
7836;BME280;3963;42.658;23.298;2023-01-30T06:53:01;57970.44;;;-1.50;100.00
7836;BME280;3963;42.658;23.298;2023-01-30T06:55:29;57946.19;;;-1.47;100.00
7836;BME280;3963;42.658;23.298;2023-01-30T06:58:02;57960.72;;;-1.52;100.00
7836;BME280;3963;42.658;23.298;2023-01-30T07:00:30;57989.06;;;-1.54;100.00
7836;BME280;3963;42.658;23.298;2023-01-30T07:02:59;57930.25;;;-1.67;100.00
7836;BME280;3963;42.658;23.298;2023-01-30T07:05:25;57988.53;;;-1.55;100.00
7836;BME280;3963;42.658;23.298;2023-01-30T07:07:53;57965.28;;;-1.38;100.00
7836;BME280;3963;42.658;23.298;2023-01-30T07:10:20;58014.81;;;-1.30;100.00
7836;BME280;3963;42.658;23.298;2023-01-30T07:12:47;58026.19;;;-1.38;100.00
7836;BME280;3963;42.658;23.298;2023-01-30T07:15:14;58009.72;;;-1.44;100.00
7836;BME280;3963;42.658;23.298;2023-01-30T07:17:41;57996.59;;;-1.42;100.00
7836;BME280;3963;42.658;23.298;2023-01-30T07:20:10;57987.41;;;-1.44;100.00
7836;BME280;3963;42.658;23.298;2023-01-30T07:22:37;58002.03;;;-1.32;100.00
7836;BME280;3963;42.658;23.298;2023-01-30T07:25:04;58000.19;;;-1.27;100.00
7836;BME280;3963;42.658;23.298;2023-01-30T07:27:31;57996.50;;;-1.30;100.00
7836;BME280;3963;42.658;23.298;2023-01-30T07:29:58;57983.22;;;-1.33;100.00
7836;BME280;3963;42.658;23.298;2023-01-30T07:32:25;58002.91;;;-1.22;100.00
7836;BME280;3963;42.658;23.298;2023-01-30T07:34:51;57997.50;;;-1.17;100.00
7836;BME280;3963;42.658;23.298;2023-01-30T07:37:20;58022.53;;;-1.13;100.00
7836;BME280;3963;42.658;23.298;2023-01-30T07:39:47;57990.03;;;-1.27;100.00
7836;BME280;3963;42.658;23.298;2023-01-30T07:42:14;57998.53;;;-1.31;100.00
7836;BME280;3963;42.658;23.298;2023-01-30T07:44:41;57984.69;;;-1.34;100.00
7836;BME280;3963;42.658;23.298;2023-01-30T07:47:07;58016.66;;;-1.35;100.00
7836;BME280;3963;42.658;23.298;2023-01-30T07:49:34;57988.47;;;-1.28;100.00
7836;BME280;3963;42.658;23.298;2023-01-30T07:52:01;58035.38;;;-1.22;100.00
7836;BME280;3963;42.658;23.298;2023-01-30T07:54:29;57990.13;;;-1.09;100.00
7836;BME280;3963;42.658;23.298;2023-01-30T07:56:55;58046.34;;;-1.14;100.00
7836;BME280;3963;42.658;23.298;2023-01-30T07:59:22;58028.22;;;-1.09;100.00
7836;BME280;3963;42.658;23.298;2023-01-30T08:01:49;58034.78;;;-1.11;100.00
7836;BME280;3963;42.658;23.298;2023-01-30T08:04:16;58020.97;;;-1.14;100.00
7836;BME280;3963;42.658;23.298;2023-01-30T08:06:42;58023.59;;;-0.97;100.00
7836;BME280;3963;42.658;23.298;2023-01-30T08:09:09;58022.03;;;-0.84;100.00
7836;BME280;3963;42.658;23.298;2023-01-30T08:11:37;58046.19;;;-0.90;100.00
7836;BME280;3963;42.658;23.298;2023-01-30T08:14:04;58037.69;;;-1.00;100.00
7836;BME280;3963;42.658;23.298;2023-01-30T08:16:30;58037.00;;;-0.91;100.00
7836;BME280;3963;42.658;23.298;2023-01-30T08:18:58;58038.13;;;-0.88;100.00
7836;BME280;3963;42.658;23.298;2023-01-30T08:21:25;58068.78;;;-0.83;100.00
7836;BME280;3963;42.658;23.298;2023-01-30T08:23:53;58089.50;;;-0.58;100.00
7836;BME280;3963;42.658;23.298;2023-01-30T08:26:20;58092.13;;;-0.56;100.00
7836;BME280;3963;42.658;23.298;2023-01-30T08:28:48;58119.53;;;-0.71;100.00
7836;BME280;3963;42.658;23.298;2023-01-30T08:31:16;58054.88;;;-0.74;100.00
7836;BME280;3963;42.658;23.298;2023-01-30T08:33:43;58070.91;;;-0.66;100.00
7836;BME280;3963;42.658;23.298;2023-01-30T08:36:10;58024.28;;;-0.77;100.00
7836;BME280;3963;42.658;23.298;2023-01-30T08:38:37;58056.78;;;-0.77;100.00
7836;BME280;3963;42.658;23.298;2023-01-30T08:41:04;58081.16;;;-0.78;100.00
7836;BME280;3963;42.658;23.298;2023-01-30T08:43:32;58046.53;;;-0.80;100.00
7836;BME280;3963;42.658;23.298;2023-01-30T08:46:01;58030.00;;;-0.74;100.00
7836;BME280;3963;42.658;23.298;2023-01-30T08:48:28;58082.91;;;-0.72;100.00
7836;BME280;3963;42.658;23.298;2023-01-30T08:50:55;58085.63;;;-0.81;100.00
7836;BME280;3963;42.658;23.298;2023-01-30T08:53:22;58063.00;;;-0.74;100.00
7836;BME280;3963;42.658;23.298;2023-01-30T08:55:50;58058.72;;;-0.66;100.00
7836;BME280;3963;42.658;23.298;2023-01-30T08:58:17;58096.69;;;-0.41;100.00
7836;BME280;3963;42.658;23.298;2023-01-30T09:00:44;58094.25;;;-0.39;100.00
7836;BME280;3963;42.658;23.298;2023-01-30T09:03:13;58068.47;;;-0.49;100.00
7836;BME280;3963;42.658;23.298;2023-01-30T09:05:40;58136.84;;;-0.27;100.00
7836;BME280;3963;42.658;23.298;2023-01-30T09:08:06;58104.50;;;-0.36;100.00
7836;BME280;3963;42.658;23.298;2023-01-30T09:10:33;58068.47;;;-0.34;100.00
7836;BME280;3963;42.658;23.298;2023-01-30T09:13:00;58123.53;;;-0.30;100.00
7836;BME280;3963;42.658;23.298;2023-01-30T09:15:27;58123.31;;;-0.35;100.00
7836;BME280;3963;42.658;23.298;2023-01-30T09:17:54;58123.53;;;-0.30;100.00
7836;BME280;3963;42.658;23.298;2023-01-30T09:20:22;58115.09;;;-0.38;100.00
7836;BME280;3963;42.658;23.298;2023-01-30T09:22:50;58084.78;;;-0.48;100.00
7836;BME280;3963;42.658;23.298;2023-01-30T09:25:16;58069.50;;;-0.77;100.00
7836;BME280;3963;42.658;23.298;2023-01-30T09:27:47;58119.81;;;-0.48;100.00
7836;BME280;3963;42.658;23.298;2023-01-30T09:30:15;58099.56;;;-0.61;100.00
7836;BME280;3963;42.658;23.298;2023-01-30T09:32:42;58112.47;;;-0.41;100.00
7836;BME280;3963;42.658;23.298;2023-01-30T09:35:08;58114.06;;;-0.25;100.00
7836;BME280;3963;42.658;23.298;2023-01-30T09:37:37;58145.09;;;-0.24;100.00
7836;BME280;3963;42.658;23.298;2023-01-30T09:40:05;58179.94;;;-0.03;100.00
7836;BME280;3963;42.658;23.298;2023-01-30T09:42:52;58132.28;;;-0.27;100.00
7836;BME280;3963;42.658;23.298;2023-01-30T09:45:36;58118.59;;;-0.25;100.00
7836;BME280;3963;42.658;23.298;2023-01-30T09:48:14;58111.59;;;-0.51;100.00
7836;BME280;3963;42.658;23.298;2023-01-30T09:51:12;58122.09;;;-0.41;100.00
7836;BME280;3963;42.658;23.298;2023-01-30T09:53:55;58106.22;;;-0.44;100.00
7836;BME280;3963;42.658;23.298;2023-01-30T09:56:24;58120.16;;;-0.38;100.00
7836;BME280;3963;42.658;23.298;2023-01-30T09:58:55;58115.91;;;-0.30;100.00
7836;BME280;3963;42.658;23.298;2023-01-30T10:01:36;58111.50;;;-0.39;100.00
7836;BME280;3963;42.658;23.298;2023-01-30T10:04:12;58137.88;;;-0.41;100.00
7836;BME280;3963;42.658;23.298;2023-01-30T10:06:47;58094.66;;;-0.56;100.00
7836;BME280;3963;42.658;23.298;2023-01-30T10:09:26;58115.78;;;-0.47;100.00
7836;BME280;3963;42.658;23.298;2023-01-30T10:12:09;58079.69;;;-0.48;100.00
7836;BME280;3963;42.658;23.298;2023-01-30T10:15:11;58086.78;;;-0.48;100.00
7836;BME280;3963;42.658;23.298;2023-01-30T10:17:52;58072.31;;;-0.70;100.00
7836;BME280;3963;42.658;23.298;2023-01-30T10:20:30;58043.13;;;-0.90;100.00
7836;BME280;3963;42.658;23.298;2023-01-30T10:23:24;58027.88;;;-1.05;100.00
7836;BME280;3963;42.658;23.298;2023-01-30T10:26:00;58104.00;;;-0.93;100.00
7836;BME280;3963;42.658;23.298;2023-01-30T10:28:34;58038.91;;;-0.94;100.00
7836;BME280;3963;42.658;23.298;2023-01-30T10:31:04;58091.22;;;-0.81;100.00
7836;BME280;3963;42.658;23.298;2023-01-30T10:33:35;58100.50;;;-0.77;100.00
7836;BME280;3963;42.658;23.298;2023-01-30T10:36:06;58034.00;;;-1.04;100.00
7836;BME280;3963;42.658;23.298;2023-01-30T10:38:38;58020.81;;;-0.90;100.00
7836;BME280;3963;42.658;23.298;2023-01-30T10:41:14;58037.06;;;-0.89;100.00
7836;BME280;3963;42.658;23.298;2023-01-30T10:43:46;58003.28;;;-0.82;100.00
7836;BME280;3963;42.658;23.298;2023-01-30T10:46:23;58066.59;;;-0.87;100.00
7836;BME280;3963;42.658;23.298;2023-01-30T10:48:57;58086.50;;;-0.71;100.00
7836;BME280;3963;42.658;23.298;2023-01-30T10:51:37;58063.91;;;-0.63;100.00
7836;BME280;3963;42.658;23.298;2023-01-30T10:54:11;58066.00;;;-0.76;100.00
7836;BME280;3963;42.658;23.298;2023-01-30T10:56:46;58039.19;;;-0.72;100.00
7836;BME280;3963;42.658;23.298;2023-01-30T10:59:26;58049.69;;;-0.77;100.00
7836;BME280;3963;42.658;23.298;2023-01-30T11:01:58;58062.56;;;-0.72;100.00
7836;BME280;3963;42.658;23.298;2023-01-30T11:04:37;58088.50;;;-0.71;100.00
7836;BME280;3963;42.658;23.298;2023-01-30T11:07:07;58134.00;;;-0.49;100.00
7836;BME280;3963;42.658;23.298;2023-01-30T11:09:39;58184.84;;;0.07;100.00
7836;BME280;3963;42.658;23.298;2023-01-30T11:12:07;58211.91;;;0.52;100.00
7836;BME280;3963;42.658;23.298;2023-01-30T11:14:51;58189.78;;;0.75;100.00
7836;BME280;3963;42.658;23.298;2023-01-30T11:17:19;58292.63;;;0.88;100.00
7836;BME280;3963;42.658;23.298;2023-01-30T11:19:54;58221.66;;;0.69;100.00
7836;BME280;3963;42.658;23.298;2023-01-30T11:22:23;58244.06;;;0.68;100.00
7836;BME280;3963;42.658;23.298;2023-01-30T11:25:00;58311.03;;;1.47;100.00
7836;BME280;3963;42.658;23.298;2023-01-30T11:27:30;58444.50;;;2.13;100.00
7836;BME280;3963;42.658;23.298;2023-01-30T11:30:08;58526.03;;;2.94;100.00
7836;BME280;3963;42.658;23.298;2023-01-30T11:32:37;58605.88;;;3.67;100.00
7836;BME280;3963;42.658;23.298;2023-01-30T11:35:20;58717.56;;;4.42;100.00
7836;BME280;3963;42.658;23.298;2023-01-30T11:37:50;58728.97;;;4.75;100.00
7836;BME280;3963;42.658;23.298;2023-01-30T11:40:24;58739.41;;;4.36;100.00
7836;BME280;3963;42.658;23.298;2023-01-30T11:43:00;58770.50;;;4.46;100.00
7836;BME280;3963;42.658;23.298;2023-01-30T11:45:29;58723.66;;;4.55;100.00
7836;BME280;3963;42.658;23.298;2023-01-30T11:48:00;58588.91;;;3.51;100.00
7836;BME280;3963;42.658;23.298;2023-01-30T11:50:32;58553.59;;;2.93;100.00
7836;BME280;3963;42.658;23.298;2023-01-30T11:53:02;58560.50;;;3.14;100.00
7836;BME280;3963;42.658;23.298;2023-01-30T11:55:32;58630.38;;;3.66;100.00
7836;BME280;3963;42.658;23.298;2023-01-30T11:58:07;58619.09;;;3.51;100.00
7836;BME280;3963;42.658;23.298;2023-01-30T12:00:39;58569.69;;;3.28;100.00
7836;BME280;3963;42.658;23.298;2023-01-30T12:03:11;58525.22;;;2.71;100.00
7836;BME280;3963;42.658;23.298;2023-01-30T12:05:39;58553.34;;;3.00;100.00
7836;BME280;3963;42.658;23.298;2023-01-30T12:08:13;58517.81;;;2.78;100.00
7836;BME280;3963;42.658;23.298;2023-01-30T12:10:49;58496.50;;;2.83;100.00
7836;BME280;3963;42.658;23.298;2023-01-30T12:13:24;58450.59;;;2.27;100.00
7836;BME280;3963;42.658;23.298;2023-01-30T12:16:03;58460.41;;;2.02;100.00
7836;BME280;3963;42.658;23.298;2023-01-30T12:18:36;58404.63;;;1.97;100.00
7836;BME280;3963;42.658;23.298;2023-01-30T12:21:10;58404.25;;;1.73;100.00
7836;BME280;3963;42.658;23.298;2023-01-30T12:23:41;58341.19;;;1.63;100.00
7836;BME280;3963;42.658;23.298;2023-01-30T12:26:11;58329.47;;;1.50;100.00
7836;BME280;3963;42.658;23.298;2023-01-30T12:28:46;58355.97;;;1.48;100.00
7836;BME280;3963;42.658;23.298;2023-01-30T12:31:19;58363.53;;;1.60;100.00
7836;BME280;3963;42.658;23.298;2023-01-30T12:33:49;58329.31;;;1.30;100.00
7836;BME280;3963;42.658;23.298;2023-01-30T12:36:23;58290.78;;;1.08;100.00
7836;BME280;3963;42.658;23.298;2023-01-30T12:38:56;58294.16;;;1.16;100.00
7836;BME280;3963;42.658;23.298;2023-01-30T12:41:37;58316.47;;;1.13;100.00
7836;BME280;3963;42.658;23.298;2023-01-30T12:44:21;58341.25;;;1.37;100.00
7836;BME280;3963;42.658;23.298;2023-01-30T12:47:05;58334.13;;;1.23;100.00
7836;BME280;3963;42.658;23.298;2023-01-30T12:49:52;58310.91;;;1.15;100.00
7836;BME280;3963;42.658;23.298;2023-01-30T12:52:43;58297.72;;;1.02;100.00
7836;BME280;3963;42.658;23.298;2023-01-30T12:55:28;58313.91;;;1.13;100.00
7836;BME280;3963;42.658;23.298;2023-01-30T12:57:59;58265.13;;;0.88;100.00
7836;BME280;3963;42.658;23.298;2023-01-30T13:00:41;58265.03;;;0.86;100.00
7836;BME280;3963;42.658;23.298;2023-01-30T13:03:25;58281.56;;;0.92;100.00
7836;BME280;3963;42.658;23.298;2023-01-30T13:06:05;58254.56;;;0.64;100.00
7836;BME280;3963;42.658;23.298;2023-01-30T13:08:48;58252.22;;;0.83;100.00
7836;BME280;3963;42.658;23.298;2023-01-30T13:11:28;58271.72;;;0.87;100.00
7836;BME280;3963;42.658;23.298;2023-01-30T13:14:03;58299.66;;;1.14;100.00
7836;BME280;3963;42.658;23.298;2023-01-30T13:16:47;58278.94;;;1.04;100.00
7836;BME280;3963;42.658;23.298;2023-01-30T13:19:20;58263.28;;;0.94;100.00
7836;BME280;3963;42.658;23.298;2023-01-30T13:21:57;58291.06;;;1.01;100.00